logo dgac
Miércoles 19 de Junio del 2024
Buscar por aerodromo o helipuerto
Ingrese nombre de aeródromo, localidad o designador OACI:

Aeródromo: Peldehue (SCPD)

Ubicación: Colina, XIII Región, Chile (33º 07' 03'' S, 70º 41' 02'' W) Ver ubicación en el mapa

Pistas

Luces
Orientación Dimensión Pendiente Superficie Resistencia APCH THR RWY PAPI
14/32 1500 x 30 0,50 ASPH 29 F/C/Y/U No Sí (3º)
Horas de operación HJ
Elevación 670m / 2198 ft
Otra Información Adm : D.G.A.C
Uso : PUB
ubicado : 9.4Km al N de plaza de armas de la comuna de Colina
Pendiente Longitudinal RWY: +0.5 RWY 32 y -0.5 RWY 14
Teléfonos ARO: 224363873 - 224363874.



Otra información ver AIP-Chile Volumen I AD 3.9-3.11-C
CCCM/FCCV Descargar CCCM/FCCV
andera de Chile
Mapa de Peldehue (SCPD)

Último METAR

METAR SCPD 182200Z 01010KT 340V040 4000 RA BKN020 OVC040 10/08 Q1016

Último TAF

TAF SCPD 191100Z 1912/1924 VRB02KT 8000 SCT030 OVC080 TX19/1919Z TN05/1913Z TEMPO 1912/1914 7000 -SHRA BECMG 1916/1918 22005KT 9999 FEW050

Últimas fotos cámaras

Imagen aerodromo Peldehue (SCPD) Sur tomada el 19-06-2024 11:45:49 Imagen aerodromo Peldehue (SCPD) Norte tomada el 19-06-2024 11:46:07

Último NOTAM

W1234/24 NOTAMN Q)SCEZ/QWULW/IV/BO/AW/000/010/3304S07040W001 A)SCPD B)2406041330 C)2406302230 D)DLY BTN 1330-2230 E)RPAS FLT SECT CHACABUCO ZONE ...D... RDO 0.29NM WI:330419S / 070400W INSTRUCTIONS: PELDEHUE TWR 118.6MHZ F)GND G)984FT AGL